Minerva Virgo — SXXT — position and weather

sailwx.info

Track history (hours):
 
Tides and Currents Weather Stations Pressure Air Temp Water Temp Dewpoint Dewpoint Depression Visibility Wind Speed Wind Dir Waves Ship Positions

Minerva Virgo

Last reported at 2016-Nov-21 12:22 UTC. Time now 2016-Dec-03 19:43 UTC.
Position S 02°06' W 044°08'.
Warning: this ship's position is 12 days out of date.

Length 182 m; draft 9.9 m.

Type: Ship (hazmat cat C). MMSI: 240730000.

Date/timePositionNaut miles runAvg speedWind from/ knotsBaromVisibWave heightAir tempDewpointWater temp
2016-Nov-21 12:22S 02°06' W 044°08'911.4
2016-Nov-21 11:33S 02°14' W 044°13'1111.2
2016-Nov-21 10:33S 02°24' W 044°19'11 5.4
2016-Nov-21 08:30S 02°34' W 044°23'0 0.0
2016-Nov-21 07:27S 02°34' W 044°23'0 0.0
2016-Nov-21 05:15S 02°34' W 044°23'0 0.0
2016-Nov-21 04:30S 02°34' W 044°23'0 0.0
2016-Nov-21 02:30S 02°34' W 044°23'0 0.0
2016-Nov-21 00:33S 02°34' W 044°23'0 0.0
2016-Nov-20 22:33S 02°34' W 044°23'0 0.0
2016-Nov-20 17:30S 02°34' W 044°23'0 0.0
2016-Nov-20 16:30S 02°34' W 044°23'0 0.0
2016-Nov-20 14:33S 02°34' W 044°23'0 0.0
2016-Nov-20 13:33S 02°34' W 044°23'0 0.0
2016-Nov-19 11:15S 02°34' W 044°23'0 0.0
2016-Nov-19 09:12S 02°34' W 044°23'0 0.0
2016-Nov-19 07:33S 02°34' W 044°23'0 0.0
2016-Nov-19 05:30S 02°34' W 044°23'0 0.0
2016-Nov-19 04:33S 02°34' W 044°23'0 0.0
2016-Nov-19 03:33S 02°34' W 044°23'0 0.0
2016-Nov-19 02:30S 02°34' W 044°23'0 0.0
2016-Nov-19 01:30S 02°34' W 044°23'0 0.0
2016-Nov-19 00:09S 02°34' W 044°23'0 0.0
2016-Nov-18 23:15S 02°34' W 044°23'0 0.0
2016-Nov-18 20:06S 02°34' W 044°23'6 4.1
2016-Nov-18 18:33S 02°28' W 044°22'7 7.0
2016-Nov-18 17:34S 02°22' W 044°18'16 5.2
2016-Nov-18 14:28S 02°09' W 044°09'0 0.0
2016-Nov-17 14:22S 02°09' W 044°09'0 0.2
2016-Nov-17 13:25S 02°09' W 044°09'0 0.1
2016-Nov-17 12:31S 02°09' W 044°09'0 0.0
2016-Nov-17 06:04S 02°09' W 044°09'0 0.1
2016-Nov-17 02:31S 02°09' W 044°09'0 0.0
2016-Nov-16 17:17S 02°09' W 044°09'0 0.2
2016-Nov-16 16:17S 02°09' W 044°09'0 0.0
2016-Nov-16 12:22S 02°09' W 044°09'0 0.0
2016-Nov-16 04:31S 02°09' W 044°09'0 0.1
2016-Nov-16 03:31S 02°09' W 044°09'0 0.0
2016-Nov-16 02:31S 02°09' W 044°09'0 0.0
2016-Nov-16 01:31S 02°09' W 044°09'0 0.0
2016-Nov-15 13:31S 02°09' W 044°09'0 0.0
2016-Nov-15 12:28S 02°09' W 044°09'0 0.2
2016-Nov-15 11:31S 02°09' W 044°09'0 0.0
2016-Nov-15 03:31S 02°09' W 044°09'0 0.0
2016-Nov-15 02:31S 02°09' W 044°09'0 0.0
2016-Nov-15 00:31S 02°09' W 044°09'0 0.1
2016-Nov-14 23:40S 02°09' W 044°09'0 0.0
2016-Nov-14 15:14S 02°09' W 044°09'0 0.0
2016-Nov-14 11:31S 02°09' W 044°09'0 0.0
2016-Nov-14 00:25S 02°09' W 044°09'0 0.0
2016-Nov-13 23:31S 02°09' W 044°09'0 0.1
2016-Nov-13 22:31S 02°09' W 044°09'0 0.0
2016-Nov-13 13:31S 02°09' W 044°09'0 0.0
2016-Nov-13 10:17S 02°09' W 044°09'0 0.0
2016-Nov-12 14:25S 02°09' W 044°09'0 0.2
2016-Nov-12 13:31S 02°09' W 044°09'0 0.1
2016-Nov-12 12:33S 02°09' W 044°09'0 0.1
2016-Nov-12 09:31S 02°09' W 044°09'0 0.0
2016-Nov-12 00:32S 02°09' W 044°09'0 0.0
2016-Nov-11 14:31S 02°09' W 044°09'  
Track history (hours):
 
Tides and Currents Weather Stations Pressure Air Temp Water Temp Dewpoint Dewpoint Depression Visibility Wind Speed Wind Dir Waves Ship Positions

Minerva Virgo

Last reported at 2016-Nov-21 12:22 UTC. Time now 2016-Dec-03 19:43 UTC.
Position S 02°06' W 044°08'.
Warning: this ship's position is 12 days out of date.

Length 182 m; draft 9.9 m.

Type: Ship (hazmat cat C). MMSI: 240730000.

Date/timePositionNaut miles runAvg speedWind from/ knotsBaromVisibWave heightAir tempDewpointWater temp
2016-Nov-21 12:22S 02°06' W 044°08'911.4
2016-Nov-21 11:33S 02°14' W 044°13'1111.2
2016-Nov-21 10:33S 02°24' W 044°19'11 5.4
2016-Nov-21 08:30S 02°34' W 044°23'0 0.0
2016-Nov-21 07:27S 02°34' W 044°23'0 0.0
2016-Nov-21 05:15S 02°34' W 044°23'0 0.0
2016-Nov-21 04:30S 02°34' W 044°23'0 0.0
2016-Nov-21 02:30S 02°34' W 044°23'0 0.0
2016-Nov-21 00:33S 02°34' W 044°23'0 0.0
2016-Nov-20 22:33S 02°34' W 044°23'0 0.0
2016-Nov-20 17:30S 02°34' W 044°23'0 0.0
2016-Nov-20 16:30S 02°34' W 044°23'0 0.0
2016-Nov-20 14:33S 02°34' W 044°23'0 0.0
2016-Nov-20 13:33S 02°34' W 044°23'0 0.0
2016-Nov-19 11:15S 02°34' W 044°23'0 0.0
2016-Nov-19 09:12S 02°34' W 044°23'0 0.0
2016-Nov-19 07:33S 02°34' W 044°23'0 0.0
2016-Nov-19 05:30S 02°34' W 044°23'0 0.0
2016-Nov-19 04:33S 02°34' W 044°23'0 0.0
2016-Nov-19 03:33S 02°34' W 044°23'0 0.0
2016-Nov-19 02:30S 02°34' W 044°23'0 0.0
2016-Nov-19 01:30S 02°34' W 044°23'0 0.0
2016-Nov-19 00:09S 02°34' W 044°23'0 0.0
2016-Nov-18 23:15S 02°34' W 044°23'0 0.0
2016-Nov-18 20:06S 02°34' W 044°23'6 4.1
2016-Nov-18 18:33S 02°28' W 044°22'7 7.0
2016-Nov-18 17:34S 02°22' W 044°18'16 5.2
2016-Nov-18 14:28S 02°09' W 044°09'0 0.0
2016-Nov-17 14:22S 02°09' W 044°09'0 0.2
2016-Nov-17 13:25S 02°09' W 044°09'0 0.1
2016-Nov-17 12:31S 02°09' W 044°09'0 0.0
2016-Nov-17 06:04S 02°09' W 044°09'0 0.1
2016-Nov-17 02:31S 02°09' W 044°09'0 0.0
2016-Nov-16 17:17S 02°09' W 044°09'0 0.2
2016-Nov-16 16:17S 02°09' W 044°09'0 0.0
2016-Nov-16 12:22S 02°09' W 044°09'0 0.0
2016-Nov-16 04:31S 02°09' W 044°09'0 0.1
2016-Nov-16 03:31S 02°09' W 044°09'0 0.0
2016-Nov-16 02:31S 02°09' W 044°09'0 0.0
2016-Nov-16 01:31S 02°09' W 044°09'0 0.0
2016-Nov-15 13:31S 02°09' W 044°09'0 0.0
2016-Nov-15 12:28S 02°09' W 044°09'0 0.2
2016-Nov-15 11:31S 02°09' W 044°09'0 0.0
2016-Nov-15 03:31S 02°09' W 044°09'0 0.0
2016-Nov-15 02:31S 02°09' W 044°09'0 0.0
2016-Nov-15 00:31S 02°09' W 044°09'0 0.1
2016-Nov-14 23:40S 02°09' W 044°09'0 0.0
2016-Nov-14 15:14S 02°09' W 044°09'0 0.0
2016-Nov-14 11:31S 02°09' W 044°09'0 0.0
2016-Nov-14 00:25S 02°09' W 044°09'0 0.0
2016-Nov-13 23:31S 02°09' W 044°09'0 0.1
2016-Nov-13 22:31S 02°09' W 044°09'0 0.0
2016-Nov-13 13:31S 02°09' W 044°09'0 0.0
2016-Nov-13 10:17S 02°09' W 044°09'0 0.0
2016-Nov-12 14:25S 02°09' W 044°09'0 0.2
2016-Nov-12 13:31S 02°09' W 044°09'0 0.1
2016-Nov-12 12:33S 02°09' W 044°09'0 0.1
2016-Nov-12 09:31S 02°09' W 044°09'0 0.0
2016-Nov-12 00:32S 02°09' W 044°09'0 0.0
2016-Nov-11 14:31S 02°09' W 044°09'  

Dump ship's entire track history